sensor_id;sensor_type;location;lat;lon;timestamp;P1;durP1;ratioP1;P2;durP2;ratioP2
70757;SDS011;59316;52.964;7.102;2022-11-23T00:01:36;29.60;;;14.30;;
70757;SDS011;59316;52.964;7.102;2022-11-23T00:06:39;29.70;;;14.05;;
70757;SDS011;59316;52.964;7.102;2022-11-23T00:11:42;26.33;;;14.05;;
70757;SDS011;59316;52.964;7.102;2022-11-23T00:16:44;27.33;;;14.27;;
70757;SDS011;59316;52.964;7.102;2022-11-23T00:21:46;25.23;;;13.90;;
70757;SDS011;59316;52.964;7.102;2022-11-23T00:26:49;27.13;;;14.37;;
70757;SDS011;59316;52.964;7.102;2022-11-23T00:31:51;30.83;;;14.10;;
70757;SDS011;59316;52.964;7.102;2022-11-23T00:36:54;30.83;;;13.83;;
70757;SDS011;59316;52.964;7.102;2022-11-23T00:41:56;28.23;;;14.67;;
70757;SDS011;59316;52.964;7.102;2022-11-23T00:46:58;25.10;;;13.93;;
70757;SDS011;59316;52.964;7.102;2022-11-23T00:52:01;26.33;;;13.60;;
70757;SDS011;59316;52.964;7.102;2022-11-23T00:57:03;24.80;;;13.17;;
70757;SDS011;59316;52.964;7.102;2022-11-23T01:02:06;24.43;;;13.73;;
70757;SDS011;59316;52.964;7.102;2022-11-23T01:07:08;25.80;;;14.10;;
70757;SDS011;59316;52.964;7.102;2022-11-23T01:12:11;31.87;;;15.37;;
70757;SDS011;59316;52.964;7.102;2022-11-23T01:17:13;28.73;;;15.23;;
70757;SDS011;59316;52.964;7.102;2022-11-23T01:22:16;31.80;;;16.00;;
70757;SDS011;59316;52.964;7.102;2022-11-23T01:27:18;31.80;;;15.37;;
70757;SDS011;59316;52.964;7.102;2022-11-23T01:32:20;32.47;;;15.30;;
70757;SDS011;59316;52.964;7.102;2022-11-23T01:37:23;29.10;;;15.27;;
70757;SDS011;59316;52.964;7.102;2022-11-23T01:47:44;26.73;;;14.20;;
70757;SDS011;59316;52.964;7.102;2022-11-23T01:52:46;32.30;;;15.40;;
70757;SDS011;59316;52.964;7.102;2022-11-23T01:57:49;31.43;;;15.47;;
70757;SDS011;59316;52.964;7.102;2022-11-23T02:02:56;28.15;;;14.70;;
70757;SDS011;59316;52.964;7.102;2022-11-23T02:08:02;30.83;;;14.93;;
70757;SDS011;59316;52.964;7.102;2022-11-23T02:13:08;29.88;;;15.65;;
70757;SDS011;59316;52.964;7.102;2022-11-23T02:18:23;32.55;;;16.27;;
70757;SDS011;59316;52.964;7.102;2022-11-23T02:34:18;27.48;;;15.35;;
70757;SDS011;59316;52.964;7.102;2022-11-23T02:39:31;29.90;;;15.48;;
70757;SDS011;59316;52.964;7.102;2022-11-23T02:44:54;30.42;;;14.23;;
70757;SDS011;59316;52.964;7.102;2022-11-23T02:50:11;28.80;;;14.23;;
70757;SDS011;59316;52.964;7.102;2022-11-23T02:55:17;27.95;;;14.73;;
70757;SDS011;59316;52.964;7.102;2022-11-23T03:00:19;31.87;;;16.20;;
70757;SDS011;59316;52.964;7.102;2022-11-23T03:05:22;28.53;;;14.97;;
70757;SDS011;59316;52.964;7.102;2022-11-23T03:10:25;29.70;;;14.50;;
70757;SDS011;59316;52.964;7.102;2022-11-23T03:15:28;30.23;;;14.75;;
70757;SDS011;59316;52.964;7.102;2022-11-23T03:20:31;32.13;;;15.27;;
70757;SDS011;59316;52.964;7.102;2022-11-23T03:25:33;27.43;;;13.70;;
70757;SDS011;59316;52.964;7.102;2022-11-23T03:30:38;29.48;;;14.48;;
70757;SDS011;59316;52.964;7.102;2022-11-23T03:35:41;27.55;;;13.93;;
70757;SDS011;59316;52.964;7.102;2022-11-23T03:40:53;25.90;;;13.32;;
70757;SDS011;59316;52.964;7.102;2022-11-23T03:46:02;31.42;;;13.82;;
70757;SDS011;59316;52.964;7.102;2022-11-23T03:51:04;29.50;;;13.27;;
70757;SDS011;59316;52.964;7.102;2022-11-23T03:56:07;28.85;;;13.80;;
70757;SDS011;59316;52.964;7.102;2022-11-23T04:01:15;28.85;;;13.98;;
70757;SDS011;59316;52.964;7.102;2022-11-23T04:06:21;31.10;;;14.48;;
70757;SDS011;59316;52.964;7.102;2022-11-23T04:11:43;29.17;;;13.23;;
70757;SDS011;59316;52.964;7.102;2022-11-23T04:16:46;33.27;;;13.53;;
70757;SDS011;59316;52.964;7.102;2022-11-23T04:21:49;34.55;;;14.07;;
70757;SDS011;59316;52.964;7.102;2022-11-23T04:26:53;26.13;;;12.40;;
70757;SDS011;59316;52.964;7.102;2022-11-23T04:31:55;28.70;;;13.93;;
70757;SDS011;59316;52.964;7.102;2022-11-23T04:36:58;31.93;;;13.53;;
70757;SDS011;59316;52.964;7.102;2022-11-23T04:42:05;30.40;;;13.40;;
70757;SDS011;59316;52.964;7.102;2022-11-23T04:47:09;29.88;;;13.35;;
70757;SDS011;59316;52.964;7.102;2022-11-23T04:52:12;37.88;;;13.73;;
70757;SDS011;59316;52.964;7.102;2022-11-23T04:57:20;31.50;;;13.10;;
70757;SDS011;59316;52.964;7.102;2022-11-23T05:02:25;28.00;;;12.80;;
70757;SDS011;59316;52.964;7.102;2022-11-23T05:07:44;27.00;;;12.50;;
70757;SDS011;59316;52.964;7.102;2022-11-23T05:12:47;29.63;;;13.23;;
70757;SDS011;59316;52.964;7.102;2022-11-23T05:22:59;28.90;;;11.98;;
70757;SDS011;59316;52.964;7.102;2022-11-23T05:33:25;30.90;;;12.43;;
70757;SDS011;59316;52.964;7.102;2022-11-23T05:38:27;29.60;;;12.20;;
70757;SDS011;59316;52.964;7.102;2022-11-23T05:43:34;31.80;;;12.85;;
70757;SDS011;59316;52.964;7.102;2022-11-23T05:48:36;25.80;;;11.23;;
70757;SDS011;59316;52.964;7.102;2022-11-23T05:53:44;31.77;;;10.98;;
70757;SDS011;59316;52.964;7.102;2022-11-23T05:58:59;27.20;;;11.32;;
70757;SDS011;59316;52.964;7.102;2022-11-23T06:04:02;26.23;;;11.03;;
70757;SDS011;59316;52.964;7.102;2022-11-23T06:09:10;32.35;;;11.43;;
70757;SDS011;59316;52.964;7.102;2022-11-23T06:14:17;21.77;;;9.82;;
70757;SDS011;59316;52.964;7.102;2022-11-23T06:19:21;19.00;;;9.50;;
70757;SDS011;59316;52.964;7.102;2022-11-23T06:24:25;19.88;;;8.50;;
70757;SDS011;59316;52.964;7.102;2022-11-23T06:29:48;28.50;;;9.50;;
70757;SDS011;59316;52.964;7.102;2022-11-23T06:34:51;20.83;;;9.13;;
70757;SDS011;59316;52.964;7.102;2022-11-23T06:39:55;17.80;;;7.70;;
70757;SDS011;59316;52.964;7.102;2022-11-23T06:44:58;20.93;;;8.50;;
70757;SDS011;59316;52.964;7.102;2022-11-23T06:55:05;20.10;;;7.93;;
70757;SDS011;59316;52.964;7.102;2022-11-23T07:00:09;19.45;;;7.35;;
70757;SDS011;59316;52.964;7.102;2022-11-23T07:05:12;17.35;;;7.40;;
70757;SDS011;59316;52.964;7.102;2022-11-23T07:10:15;19.70;;;6.57;;
70757;SDS011;59316;52.964;7.102;2022-11-23T07:15:20;21.65;;;7.65;;
70757;SDS011;59316;52.964;7.102;2022-11-23T07:20:25;19.60;;;8.18;;
70757;SDS011;59316;52.964;7.102;2022-11-23T07:25:28;19.03;;;6.43;;
70757;SDS011;59316;52.964;7.102;2022-11-23T07:30:34;27.60;;;7.47;;
70757;SDS011;59316;52.964;7.102;2022-11-23T07:35:38;17.02;;;6.93;;
70757;SDS011;59316;52.964;7.102;2022-11-23T07:40:42;20.02;;;7.00;;
70757;SDS011;59316;52.964;7.102;2022-11-23T07:45:56;16.65;;;6.60;;
70757;SDS011;59316;52.964;7.102;2022-11-23T07:50:59;14.93;;;6.72;;
70757;SDS011;59316;52.964;7.102;2022-11-23T07:56:01;14.67;;;6.53;;
70757;SDS011;59316;52.964;7.102;2022-11-23T08:01:04;22.92;;;6.43;;
70757;SDS011;59316;52.964;7.102;2022-11-23T08:06:10;16.43;;;6.50;;
70757;SDS011;59316;52.964;7.102;2022-11-23T08:11:13;17.90;;;6.43;;
70757;SDS011;59316;52.964;7.102;2022-11-23T08:16:16;14.73;;;5.90;;
70757;SDS011;59316;52.964;7.102;2022-11-23T08:21:18;17.30;;;5.50;;
70757;SDS011;59316;52.964;7.102;2022-11-23T08:26:20;13.80;;;5.40;;
70757;SDS011;59316;52.964;7.102;2022-11-23T08:31:23;13.40;;;6.10;;
70757;SDS011;59316;52.964;7.102;2022-11-23T08:36:26;17.27;;;6.28;;
70757;SDS011;59316;52.964;7.102;2022-11-23T08:41:28;17.30;;;6.83;;
70757;SDS011;59316;52.964;7.102;2022-11-23T08:46:30;15.03;;;6.50;;
70757;SDS011;59316;52.964;7.102;2022-11-23T08:51:33;17.67;;;7.17;;
70757;SDS011;59316;52.964;7.102;2022-11-23T08:56:36;23.70;;;7.20;;
70757;SDS011;59316;52.964;7.102;2022-11-23T09:01:38;14.33;;;6.80;;
70757;SDS011;59316;52.964;7.102;2022-11-23T09:06:40;10.83;;;4.90;;
70757;SDS011;59316;52.964;7.102;2022-11-23T09:11:43;15.87;;;5.37;;
70757;SDS011;59316;52.964;7.102;2022-11-23T09:16:46;17.35;;;4.95;;
70757;SDS011;59316;52.964;7.102;2022-11-23T09:21:48;14.20;;;5.00;;
70757;SDS011;59316;52.964;7.102;2022-11-23T09:26:50;11.90;;;5.07;;
70757;SDS011;59316;52.964;7.102;2022-11-23T09:31:53;15.43;;;5.47;;
70757;SDS011;59316;52.964;7.102;2022-11-23T09:36:55;14.30;;;4.60;;
70757;SDS011;59316;52.964;7.102;2022-11-23T09:52:58;13.73;;;4.43;;
70757;SDS011;59316;52.964;7.102;2022-11-23T09:58:06;12.20;;;4.47;;
70757;SDS011;59316;52.964;7.102;2022-11-23T10:03:16;11.60;;;4.43;;
70757;SDS011;59316;52.964;7.102;2022-11-23T10:08:29;15.75;;;4.45;;
70757;SDS011;59316;52.964;7.102;2022-11-23T10:13:43;11.30;;;3.90;;
70757;SDS011;59316;52.964;7.102;2022-11-23T10:18:56;14.05;;;3.90;;
70757;SDS011;59316;52.964;7.102;2022-11-23T10:24:18;13.68;;;3.70;;
70757;SDS011;59316;52.964;7.102;2022-11-23T10:39:47;14.25;;;3.28;;
70757;SDS011;59316;52.964;7.102;2022-11-23T10:44:50;13.77;;;3.17;;
70757;SDS011;59316;52.964;7.102;2022-11-23T10:49:57;12.20;;;3.53;;
70757;SDS011;59316;52.964;7.102;2022-11-23T10:55:00;15.23;;;3.67;;
70757;SDS011;59316;52.964;7.102;2022-11-23T11:05:26;11.95;;;3.13;;
70757;SDS011;59316;52.964;7.102;2022-11-23T11:16:04;13.85;;;2.63;;
70757;SDS011;59316;52.964;7.102;2022-11-23T11:21:20;12.63;;;2.78;;
70757;SDS011;59316;52.964;7.102;2022-11-23T11:26:32;8.55;;;2.25;;
70757;SDS011;59316;52.964;7.102;2022-11-23T11:31:38;13.23;;;2.30;;
70757;SDS011;59316;52.964;7.102;2022-11-23T11:36:47;7.68;;;2.15;;
70757;SDS011;59316;52.964;7.102;2022-11-23T11:41:53;10.23;;;2.30;;
70757;SDS011;59316;52.964;7.102;2022-11-23T11:47:00;9.35;;;2.40;;
70757;SDS011;59316;52.964;7.102;2022-11-23T11:52:19;13.82;;;2.67;;
70757;SDS011;59316;52.964;7.102;2022-11-23T11:57:35;13.07;;;2.60;;
70757;SDS011;59316;52.964;7.102;2022-11-23T12:13:22;10.45;;;3.08;;
70757;SDS011;59316;52.964;7.102;2022-11-23T12:24:02;7.70;;;3.17;;
70757;SDS011;59316;52.964;7.102;2022-11-23T12:29:21;7.75;;;2.70;;
70757;SDS011;59316;52.964;7.102;2022-11-23T13:01:16;6.07;;;1.88;;
70757;SDS011;59316;52.964;7.102;2022-11-23T13:23:36;9.10;;;2.33;;
70757;SDS011;59316;52.964;7.102;2022-11-23T13:28:40;4.15;;;1.60;;
70757;SDS011;59316;52.964;7.102;2022-11-23T13:33:47;7.88;;;2.10;;
70757;SDS011;59316;52.964;7.102;2022-11-23T13:38:57;5.20;;;2.08;;
70757;SDS011;59316;52.964;7.102;2022-11-23T13:44:24;7.13;;;1.80;;
70757;SDS011;59316;52.964;7.102;2022-11-23T13:49:48;7.38;;;1.90;;
70757;SDS011;59316;52.964;7.102;2022-11-23T13:54:56;8.88;;;2.33;;
70757;SDS011;59316;52.964;7.102;2022-11-23T14:10:50;7.03;;;2.20;;
70757;SDS011;59316;52.964;7.102;2022-11-23T14:15:54;9.57;;;2.22;;
70757;SDS011;59316;52.964;7.102;2022-11-23T14:43:41;6.75;;;1.40;;
70757;SDS011;59316;52.964;7.102;2022-11-23T14:48:46;9.55;;;1.60;;
70757;SDS011;59316;52.964;7.102;2022-11-23T14:53:51;7.10;;;1.70;;
70757;SDS011;59316;52.964;7.102;2022-11-23T14:58:58;10.52;;;1.60;;
70757;SDS011;59316;52.964;7.102;2022-11-23T15:04:08;3.97;;;1.20;;
70757;SDS011;59316;52.964;7.102;2022-11-23T15:09:35;6.43;;;1.38;;
70757;SDS011;59316;52.964;7.102;2022-11-23T15:14:42;8.43;;;1.75;;
70757;SDS011;59316;52.964;7.102;2022-11-23T15:19:51;9.00;;;1.90;;
70757;SDS011;59316;52.964;7.102;2022-11-23T15:25:07;3.78;;;1.92;;
70757;SDS011;59316;52.964;7.102;2022-11-23T15:30:16;7.63;;;1.58;;
70757;SDS011;59316;52.964;7.102;2022-11-23T15:35:27;7.97;;;1.45;;
70757;SDS011;59316;52.964;7.102;2022-11-23T15:40:35;4.68;;;1.58;;
70757;SDS011;59316;52.964;7.102;2022-11-23T15:45:56;9.30;;;1.50;;
70757;SDS011;59316;52.964;7.102;2022-11-23T15:51:03;6.72;;;1.50;;
70757;SDS011;59316;52.964;7.102;2022-11-23T15:56:10;8.55;;;1.48;;
70757;SDS011;59316;52.964;7.102;2022-11-23T16:01:24;6.25;;;1.55;;
70757;SDS011;59316;52.964;7.102;2022-11-23T16:06:32;4.88;;;1.55;;
70757;SDS011;59316;52.964;7.102;2022-11-23T16:11:37;7.68;;;1.60;;
70757;SDS011;59316;52.964;7.102;2022-11-23T16:16:46;7.75;;;1.40;;
70757;SDS011;59316;52.964;7.102;2022-11-23T16:22:00;7.68;;;1.63;;
70757;SDS011;59316;52.964;7.102;2022-11-23T16:27:12;6.30;;;1.35;;
70757;SDS011;59316;52.964;7.102;2022-11-23T16:32:23;2.85;;;1.25;;
70757;SDS011;59316;52.964;7.102;2022-11-23T16:37:27;4.85;;;1.48;;
70757;SDS011;59316;52.964;7.102;2022-11-23T16:42:29;3.47;;;1.40;;
70757;SDS011;59316;52.964;7.102;2022-11-23T16:47:32;6.97;;;1.40;;
70757;SDS011;59316;52.964;7.102;2022-11-23T16:52:35;7.78;;;1.38;;
70757;SDS011;59316;52.964;7.102;2022-11-23T16:57:37;5.47;;;1.50;;
70757;SDS011;59316;52.964;7.102;2022-11-23T17:02:40;4.15;;;1.60;;
70757;SDS011;59316;52.964;7.102;2022-11-23T17:07:43;8.13;;;2.20;;
70757;SDS011;59316;52.964;7.102;2022-11-23T17:12:47;3.05;;;1.30;;
70757;SDS011;59316;52.964;7.102;2022-11-23T17:17:52;4.90;;;1.90;;
70757;SDS011;59316;52.964;7.102;2022-11-23T17:22:54;7.30;;;1.70;;
70757;SDS011;59316;52.964;7.102;2022-11-23T17:27:56;4.27;;;1.60;;
70757;SDS011;59316;52.964;7.102;2022-11-23T17:32:59;6.77;;;1.83;;
70757;SDS011;59316;52.964;7.102;2022-11-23T17:38:01;6.53;;;1.70;;
70757;SDS011;59316;52.964;7.102;2022-11-23T17:43:04;5.15;;;2.17;;
70757;SDS011;59316;52.964;7.102;2022-11-23T17:48:09;5.60;;;2.07;;
70757;SDS011;59316;52.964;7.102;2022-11-23T17:53:12;7.35;;;1.90;;
70757;SDS011;59316;52.964;7.102;2022-11-23T17:58:15;8.33;;;2.20;;
70757;SDS011;59316;52.964;7.102;2022-11-23T18:03:17;4.43;;;2.00;;
70757;SDS011;59316;52.964;7.102;2022-11-23T18:08:20;4.93;;;2.53;;
70757;SDS011;59316;52.964;7.102;2022-11-23T18:13:22;6.37;;;2.43;;
70757;SDS011;59316;52.964;7.102;2022-11-23T18:18:25;4.87;;;2.10;;
70757;SDS011;59316;52.964;7.102;2022-11-23T18:23:27;9.60;;;2.50;;
70757;SDS011;59316;52.964;7.102;2022-11-23T18:28:30;9.57;;;3.07;;
70757;SDS011;59316;52.964;7.102;2022-11-23T18:33:33;11.65;;;2.88;;
70757;SDS011;59316;52.964;7.102;2022-11-23T18:38:35;6.85;;;2.55;;
70757;SDS011;59316;52.964;7.102;2022-11-23T18:43:38;6.88;;;2.45;;
70757;SDS011;59316;52.964;7.102;2022-11-23T18:48:41;7.00;;;2.33;;
70757;SDS011;59316;52.964;7.102;2022-11-23T18:53:43;8.43;;;2.60;;
70757;SDS011;59316;52.964;7.102;2022-11-23T18:58:45;9.73;;;2.90;;
70757;SDS011;59316;52.964;7.102;2022-11-23T19:03:50;7.17;;;2.90;;
70757;SDS011;59316;52.964;7.102;2022-11-23T19:08:54;8.80;;;3.33;;
70757;SDS011;59316;52.964;7.102;2022-11-23T19:13:57;9.73;;;3.40;;
70757;SDS011;59316;52.964;7.102;2022-11-23T19:19:01;9.60;;;3.10;;
70757;SDS011;59316;52.964;7.102;2022-11-23T19:24:07;10.68;;;4.10;;
70757;SDS011;59316;52.964;7.102;2022-11-23T19:29:10;12.30;;;3.78;;
70757;SDS011;59316;52.964;7.102;2022-11-23T19:34:13;10.60;;;3.90;;
70757;SDS011;59316;52.964;7.102;2022-11-23T19:39:15;9.10;;;3.67;;
70757;SDS011;59316;52.964;7.102;2022-11-23T19:44:17;9.53;;;3.93;;
70757;SDS011;59316;52.964;7.102;2022-11-23T19:49:20;10.30;;;3.90;;
70757;SDS011;59316;52.964;7.102;2022-11-23T19:54:22;12.20;;;4.60;;
70757;SDS011;59316;52.964;7.102;2022-11-23T19:59:25;12.43;;;4.73;;
70757;SDS011;59316;52.964;7.102;2022-11-23T20:04:27;12.97;;;5.43;;
70757;SDS011;59316;52.964;7.102;2022-11-23T20:09:30;10.47;;;5.53;;
70757;SDS011;59316;52.964;7.102;2022-11-23T20:14:33;11.98;;;5.97;;
70757;SDS011;59316;52.964;7.102;2022-11-23T20:19:35;12.13;;;6.40;;
70757;SDS011;59316;52.964;7.102;2022-11-23T20:24:37;14.73;;;6.93;;
70757;SDS011;59316;52.964;7.102;2022-11-23T20:29:40;15.17;;;7.70;;
70757;SDS011;59316;52.964;7.102;2022-11-23T20:34:42;16.07;;;7.73;;
70757;SDS011;59316;52.964;7.102;2022-11-23T20:39:45;18.03;;;8.60;;
70757;SDS011;59316;52.964;7.102;2022-11-23T20:44:47;22.80;;;9.10;;
70757;SDS011;59316;52.964;7.102;2022-11-23T20:49:49;15.10;;;7.97;;
70757;SDS011;59316;52.964;7.102;2022-11-23T20:54:52;20.40;;;9.40;;
70757;SDS011;59316;52.964;7.102;2022-11-23T20:59:55;14.38;;;8.20;;
70757;SDS011;59316;52.964;7.102;2022-11-23T21:04:58;15.13;;;8.47;;
70757;SDS011;59316;52.964;7.102;2022-11-23T21:10:00;18.27;;;8.70;;
70757;SDS011;59316;52.964;7.102;2022-11-23T21:15:03;21.63;;;10.07;;
70757;SDS011;59316;52.964;7.102;2022-11-23T21:20:05;16.05;;;8.00;;
70757;SDS011;59316;52.964;7.102;2022-11-23T21:25:08;15.30;;;8.60;;
70757;SDS011;59316;52.964;7.102;2022-11-23T21:30:11;22.90;;;8.57;;
70757;SDS011;59316;52.964;7.102;2022-11-23T21:35:13;21.23;;;8.98;;
70757;SDS011;59316;52.964;7.102;2022-11-23T21:40:16;15.95;;;8.40;;
70757;SDS011;59316;52.964;7.102;2022-11-23T21:45:18;15.37;;;8.87;;
70757;SDS011;59316;52.964;7.102;2022-11-23T21:50:21;17.60;;;9.17;;
70757;SDS011;59316;52.964;7.102;2022-11-23T21:55:23;16.77;;;8.73;;
70757;SDS011;59316;52.964;7.102;2022-11-23T22:00:25;19.57;;;9.40;;
70757;SDS011;59316;52.964;7.102;2022-11-23T22:05:32;15.57;;;8.30;;
70757;SDS011;59316;52.964;7.102;2022-11-23T22:10:34;18.63;;;9.13;;
70757;SDS011;59316;52.964;7.102;2022-11-23T22:15:37;18.77;;;9.17;;
70757;SDS011;59316;52.964;7.102;2022-11-23T22:20:39;17.63;;;9.33;;
70757;SDS011;59316;52.964;7.102;2022-11-23T22:25:42;25.20;;;9.43;;
70757;SDS011;59316;52.964;7.102;2022-11-23T22:30:52;19.70;;;9.93;;
70757;SDS011;59316;52.964;7.102;2022-11-23T22:35:58;18.88;;;11.00;;
70757;SDS011;59316;52.964;7.102;2022-11-23T22:41:05;24.73;;;10.95;;
70757;SDS011;59316;52.964;7.102;2022-11-23T22:46:10;21.70;;;10.90;;
70757;SDS011;59316;52.964;7.102;2022-11-23T22:51:18;18.92;;;10.18;;
70757;SDS011;59316;52.964;7.102;2022-11-23T22:56:23;28.13;;;11.15;;
70757;SDS011;59316;52.964;7.102;2022-11-23T23:01:26;25.27;;;11.07;;
70757;SDS011;59316;52.964;7.102;2022-11-23T23:06:31;20.30;;;10.88;;
70757;SDS011;59316;52.964;7.102;2022-11-23T23:11:34;32.15;;;12.25;;
70757;SDS011;59316;52.964;7.102;2022-11-23T23:16:37;31.98;;;11.10;;
70757;SDS011;59316;52.964;7.102;2022-11-23T23:21:39;30.90;;;12.40;;
70757;SDS011;59316;52.964;7.102;2022-11-23T23:26:41;31.97;;;11.53;;
70757;SDS011;59316;52.964;7.102;2022-11-23T23:31:44;27.27;;;12.50;;
70757;SDS011;59316;52.964;7.102;2022-11-23T23:36:46;26.53;;;11.53;;
70757;SDS011;59316;52.964;7.102;2022-11-23T23:41:49;30.10;;;12.60;;
70757;SDS011;59316;52.964;7.102;2022-11-23T23:46:51;32.90;;;12.43;;
70757;SDS011;59316;52.964;7.102;2022-11-23T23:51:53;30.63;;;12.50;;
70757;SDS011;59316;52.964;7.102;2022-11-23T23:56:56;36.23;;;12.47;;
